Time;durP1;ratioP1;P1;durP2;ratioP2;P2;SDS_P1;SDS_P2;PMS_P1;PMS_P2;Temp;Humidity;BMP_temperature;BMP_pressure;BME280_temperature;BME280_humidity;BME280_pressure;Samples;Min_cycle;Max_cycle;Signal;HPM_P1;HPM_P2
2022/07/16 00:02:33;;;;;;;3.35;1.77;;;;;;;;;;5111716;28;20443;-67
2022/07/16 00:04:59;;;;;;;4.40;1.70;;;;;;;;;;5110835;28;20091;-67
2022/07/16 00:07:25;;;;;;;2.47;1.75;;;;;;;;;;5111617;28;20044;-67
2022/07/16 00:09:51;;;;;;;3.40;1.90;;;;;;;;;;5111611;28;20123;-67
2022/07/16 00:12:17;;;;;;;2.88;1.70;;;;;;;;;;5111078;28;20119;-67
2022/07/16 00:14:43;;;;;;;5.07;1.85;;;;;;;;;;5112871;28;20100;-67
2022/07/16 00:17:09;;;;;;;5.07;1.70;;;;;;;;;;5115493;28;20036;-67
2022/07/16 00:19:35;;;;;;;3.80;1.80;;;;;;;;;;5114718;28;20394;-67
2022/07/16 00:22:01;;;;;;;3.25;2.15;;;;;;;;;;5114988;28;20047;-67
2022/07/16 00:24:28;;;;;;;2.50;1.65;;;;;;;;;;5115416;28;20472;-67
2022/07/16 00:26:54;;;;;;;4.60;2.47;;;;;;;;;;5128985;27;20050;-67
2022/07/16 00:29:20;;;;;;;4.88;2.20;;;;;;;;;;5135822;27;20050;-67
2022/07/16 00:31:47;;;;;;;4.15;2.47;;;;;;;;;;5135700;27;20083;-67
2022/07/16 00:34:14;;;;;;;2.67;1.90;;;;;;;;;;5134750;27;20049;-67
2022/07/16 00:36:40;;;;;;;1.92;1.83;;;;;;;;;;5135661;27;20361;-67
2022/07/16 00:39:09;;;;;;;2.35;1.95;;;;;;;;;;5135720;27;20457;-67
2022/07/16 00:41:35;;;;;;;5.47;2.10;;;;;;;;;;5134855;27;20073;-67
2022/07/16 00:44:04;;;;;;;2.83;2.10;;;;;;;;;;5135411;27;20119;-67
2022/07/16 00:46:30;;;;;;;5.40;2.15;;;;;;;;;;5135408;27;20062;-67
2022/07/16 00:48:57;;;;;;;3.40;2.10;;;;;;;;;;5134834;27;20385;-67
2022/07/16 00:51:23;;;;;;;3.55;2.40;;;;;;;;;;5135176;27;20039;-67
2022/07/16 00:53:50;;;;;;;5.70;2.40;;;;;;;;;;5133649;27;20047;-67
2022/07/16 00:56:16;;;;;;;4.03;2.15;;;;;;;;;;5134677;27;20476;-67
2022/07/16 00:58:43;;;;;;;3.55;2.83;;;;;;;;;;5135160;27;20127;-67
2022/07/16 01:01:10;;;;;;;4.35;2.13;;;;;;;;;;5135157;27;20535;-67
2022/07/16 01:03:36;;;;;;;5.18;2.47;;;;;;;;;;5134613;27;20478;-67
2022/07/16 01:06:03;;;;;;;4.03;2.40;;;;;;;;;;5134873;27;20062;-67
2022/07/16 01:08:30;;;;;;;4.90;2.42;;;;;;;;;;5135048;27;20070;-67
2022/07/16 01:10:57;;;;;;;4.75;2.40;;;;;;;;;;5134098;27;20043;-67
2022/07/16 01:13:23;;;;;;;3.60;2.80;;;;;;;;;;5134903;27;20453;-67
2022/07/16 01:15:49;;;;;;;5.90;3.22;;;;;;;;;;5134692;27;20039;-67
2022/07/16 01:18:16;;;;;;;7.00;3.38;;;;;;;;;;5133620;27;20045;-67
2022/07/16 01:20:42;;;;;;;9.27;3.75;;;;;;;;;;5134560;27;20469;-67
2022/07/16 01:23:09;;;;;;;7.55;3.45;;;;;;;;;;5134263;27;20472;-67
2022/07/16 01:25:35;;;;;;;5.50;3.80;;;;;;;;;;5130663;27;20378;-67
2022/07/16 01:28:01;;;;;;;6.50;3.63;;;;;;;;;;5113799;28;20046;-67
2022/07/16 01:30:27;;;;;;;7.63;3.42;;;;;;;;;;5113994;28;20036;-67
2022/07/16 01:32:53;;;;;;;4.70;3.58;;;;;;;;;;5113056;28;20524;-67
2022/07/16 01:35:19;;;;;;;14.18;4.70;;;;;;;;;;5113747;28;20059;-67
2022/07/16 01:37:45;;;;;;;6.88;4.00;;;;;;;;;;5113354;28;20032;-67
2022/07/16 01:40:11;;;;;;;5.93;3.40;;;;;;;;;;5112871;27;20035;-67
2022/07/16 01:42:37;;;;;;;8.73;3.55;;;;;;;;;;5112991;28;20036;-67
2022/07/16 01:45:04;;;;;;;5.35;3.30;;;;;;;;;;5113159;28;20122;-67
2022/07/16 01:47:30;;;;;;;5.15;3.00;;;;;;;;;;5112914;28;20123;-67
2022/07/16 01:49:57;;;;;;;6.03;3.35;;;;;;;;;;5113467;28;20052;-67
2022/07/16 01:52:23;;;;;;;5.38;3.08;;;;;;;;;;5113373;28;20097;-67
2022/07/16 01:54:53;;;;;;;5.40;3.38;;;;;;;;;;5112147;28;20043;-67
2022/07/16 01:57:20;;;;;;;7.43;3.70;;;;;;;;;;5113248;28;20031;-67
2022/07/16 01:59:46;;;;;;;4.55;3.40;;;;;;;;;;5113205;28;20035;-67
2022/07/16 02:02:12;;;;;;;7.15;3.13;;;;;;;;;;5111318;28;20039;-67
2022/07/16 02:04:38;;;;;;;4.72;3.30;;;;;;;;;;5112839;27;20079;-67
2022/07/16 02:07:05;;;;;;;5.25;3.22;;;;;;;;;;5113011;28;20108;-67
2022/07/16 02:09:31;;;;;;;5.07;3.53;;;;;;;;;;5112518;28;20036;-67
2022/07/16 02:11:57;;;;;;;5.22;3.03;;;;;;;;;;5112991;28;20126;-67
2022/07/16 02:14:23;;;;;;;6.00;3.38;;;;;;;;;;5113026;28;20347;-67
2022/07/16 02:16:50;;;;;;;5.30;3.67;;;;;;;;;;5112891;28;20042;-67
2022/07/16 02:19:16;;;;;;;5.18;3.05;;;;;;;;;;5112520;27;20416;-67
2022/07/16 02:21:42;;;;;;;5.75;3.50;;;;;;;;;;5112731;28;20042;-67
2022/07/16 02:24:08;;;;;;;5.53;3.40;;;;;;;;;;5112363;28;20122;-67
2022/07/16 02:26:34;;;;;;;7.15;3.50;;;;;;;;;;5123679;27;20043;-67
2022/07/16 02:29:00;;;;;;;5.43;3.65;;;;;;;;;;5133239;27;20386;-67
2022/07/16 02:31:26;;;;;;;4.57;3.53;;;;;;;;;;5133209;27;20373;-67
2022/07/16 02:33:52;;;;;;;5.95;3.80;;;;;;;;;;5132699;27;20339;-67
2022/07/16 02:36:18;;;;;;;5.60;3.80;;;;;;;;;;5133177;27;20047;-67
2022/07/16 02:38:44;;;;;;;5.88;3.30;;;;;;;;;;5132943;27;20087;-67
2022/07/16 02:41:10;;;;;;;6.80;3.80;;;;;;;;;;5132192;27;20047;-67
2022/07/16 02:43:36;;;;;;;8.80;3.50;;;;;;;;;;5133109;27;20458;-67
2022/07/16 02:46:02;;;;;;;4.80;3.13;;;;;;;;;;5132874;27;20065;-67
2022/07/16 02:48:28;;;;;;;4.85;3.25;;;;;;;;;;5132548;27;20477;-67
2022/07/16 02:50:54;;;;;;;8.40;3.00;;;;;;;;;;5132959;27;20039;-67
2022/07/16 02:53:20;;;;;;;5.57;2.97;;;;;;;;;;5132906;27;20039;-67
2022/07/16 02:55:46;;;;;;;4.97;2.40;;;;;;;;;;5131915;27;20039;-67
2022/07/16 02:58:12;;;;;;;6.97;2.80;;;;;;;;;;5132935;27;20377;-67
2022/07/16 03:00:38;;;;;;;4.50;2.33;;;;;;;;;;5132662;27;20038;-67
2022/07/16 03:03:04;;;;;;;3.47;2.10;;;;;;;;;;5132046;27;20354;-67
2022/07/16 03:05:30;;;;;;;6.38;2.13;;;;;;;;;;5132395;27;20061;-67
2022/07/16 03:07:56;;;;;;;4.38;2.20;;;;;;;;;;5132608;27;20043;-67
2022/07/16 03:10:22;;;;;;;7.13;2.40;;;;;;;;;;5131959;27;20039;-67
2022/07/16 03:12:48;;;;;;;6.32;2.00;;;;;;;;;;5132374;27;20407;-67
2022/07/16 03:15:14;;;;;;;5.80;1.92;;;;;;;;;;5132731;27;20082;-67
2022/07/16 03:17:41;;;;;;;10.27;1.88;;;;;;;;;;5132312;27;20039;-67
2022/07/16 03:20:07;;;;;;;5.80;1.70;;;;;;;;;;5132703;27;20535;-67
2022/07/16 03:22:33;;;;;;;5.35;1.73;;;;;;;;;;5132641;27;20035;-67
2022/07/16 03:24:59;;;;;;;5.78;2.10;;;;;;;;;;5132027;27;20043;-67
2022/07/16 03:27:25;;;;;;;4.32;2.10;;;;;;;;;;5113782;27;20088;-67
2022/07/16 03:29:51;;;;;;;4.82;1.70;;;;;;;;;;5112004;28;20036;-67
2022/07/16 03:32:18;;;;;;;5.53;1.70;;;;;;;;;;5111233;28;20075;-68
2022/07/16 03:34:44;;;;;;;4.82;1.60;;;;;;;;;;5111977;28;20048;-68
2022/07/16 03:37:10;;;;;;;3.38;1.63;;;;;;;;;;5111645;28;20271;-68
2022/07/16 03:39:36;;;;;;;7.18;1.77;;;;;;;;;;5110849;28;20036;-68
2022/07/16 03:42:02;;;;;;;7.72;1.63;;;;;;;;;;5111835;28;20040;-68
2022/07/16 03:44:28;;;;;;;5.55;1.52;;;;;;;;;;5111753;28;20047;-68
2022/07/16 03:46:55;;;;;;;3.25;1.25;;;;;;;;;;5111171;28;20092;-68
2022/07/16 03:49:21;;;;;;;6.35;2.20;;;;;;;;;;5113071;28;20036;-68
2022/07/16 03:51:47;;;;;;;5.47;2.08;;;;;;;;;;5115743;28;20082;-68
2022/07/16 03:54:13;;;;;;;5.15;2.13;;;;;;;;;;5115146;28;20066;-68
2022/07/16 03:56:39;;;;;;;4.10;1.90;;;;;;;;;;5115728;28;20035;-68
2022/07/16 03:59:06;;;;;;;4.97;1.90;;;;;;;;;;5115633;27;20118;-68
2022/07/16 04:01:32;;;;;;;4.70;1.75;;;;;;;;;;5114725;28;20050;-68
2022/07/16 04:03:58;;;;;;;4.28;2.20;;;;;;;;;;5115295;28;20118;-68
2022/07/16 04:06:24;;;;;;;5.63;1.70;;;;;;;;;;5115338;28;20494;-68
2022/07/16 04:08:50;;;;;;;6.38;1.85;;;;;;;;;;5114585;28;20044;-67
2022/07/16 04:11:16;;;;;;;4.38;1.67;;;;;;;;;;5115404;28;20039;-68
2022/07/16 04:13:42;;;;;;;6.07;1.80;;;;;;;;;;5115589;28;20382;-68
2022/07/16 04:16:09;;;;;;;6.15;2.10;;;;;;;;;;5114712;28;20044;-67
2022/07/16 04:18:36;;;;;;;8.35;2.47;;;;;;;;;;5115231;28;20382;-67
2022/07/16 04:21:02;;;;;;;4.82;2.08;;;;;;;;;;5115186;28;20043;-67
2022/07/16 04:23:29;;;;;;;6.85;2.10;;;;;;;;;;5114566;28;20048;-67
2022/07/16 04:25:55;;;;;;;8.18;2.25;;;;;;;;;;5120956;27;20043;-68
2022/07/16 04:28:21;;;;;;;5.47;2.03;;;;;;;;;;5135764;27;20043;-68
2022/07/16 04:30:47;;;;;;;6.88;2.30;;;;;;;;;;5134823;27;20039;-68
2022/07/16 04:33:13;;;;;;;4.53;2.30;;;;;;;;;;5135484;27;20112;-68
2022/07/16 04:35:39;;;;;;;6.80;2.55;;;;;;;;;;5135437;27;20365;-68
2022/07/16 04:38:05;;;;;;;5.60;2.15;;;;;;;;;;5134664;27;20039;-68
2022/07/16 04:40:31;;;;;;;7.38;2.40;;;;;;;;;;5135523;27;20035;-68
2022/07/16 04:42:57;;;;;;;4.72;2.10;;;;;;;;;;5135099;27;20114;-68
2022/07/16 04:45:23;;;;;;;8.10;1.98;;;;;;;;;;5134682;27;20043;-68
2022/07/16 04:47:49;;;;;;;5.93;2.35;;;;;;;;;;5135162;27;20533;-68
2022/07/16 04:50:15;;;;;;;8.48;1.95;;;;;;;;;;5135203;27;20042;-68
2022/07/16 04:52:41;;;;;;;7.07;2.00;;;;;;;;;;5134572;27;20411;-68
2022/07/16 04:55:08;;;;;;;9.23;2.15;;;;;;;;;;5134940;27;20035;-68
2022/07/16 04:57:34;;;;;;;6.70;1.98;;;;;;;;;;5135044;27;20461;-68
2022/07/16 05:00:00;;;;;;;5.05;2.03;;;;;;;;;;5133942;27;20043;-68
2022/07/16 05:05:11;;;;;;;4.32;1.88;;;;;;;;;;5134484;27;20406;-68
2022/07/16 05:07:37;;;;;;;7.22;2.13;;;;;;;;;;5133861;27;20050;-68
2022/07/16 05:10:03;;;;;;;6.53;2.30;;;;;;;;;;5134689;27;20058;-68
2022/07/16 05:12:29;;;;;;;5.07;1.52;;;;;;;;;;5134822;27;20496;-68
2022/07/16 05:14:55;;;;;;;4.45;1.77;;;;;;;;;;5133785;27;20039;-68
2022/07/16 05:17:21;;;;;;;5.65;1.85;;;;;;;;;;5133318;27;20039;-68
2022/07/16 05:19:48;;;;;;;7.45;1.92;;;;;;;;;;5134655;27;20031;-68
2022/07/16 05:22:14;;;;;;;6.07;1.73;;;;;;;;;;5133590;27;20075;-68
2022/07/16 05:24:40;;;;;;;9.20;1.73;;;;;;;;;;5133160;27;20047;-68
2022/07/16 05:27:06;;;;;;;9.95;1.90;;;;;;;;;;5117956;27;20046;-68
2022/07/16 05:29:33;;;;;;;9.88;1.90;;;;;;;;;;5113282;28;20046;-67
2022/07/16 05:31:59;;;;;;;3.92;1.70;;;;;;;;;;5113837;28;20043;-67
2022/07/16 05:34:25;;;;;;;7.32;1.60;;;;;;;;;;5113851;28;20031;-67
2022/07/16 05:36:51;;;;;;;4.90;1.70;;;;;;;;;;5112998;27;20153;-67
2022/07/16 05:39:18;;;;;;;8.07;2.40;;;;;;;;;;5113767;28;20035;-67
2022/07/16 05:41:44;;;;;;;5.78;1.52;;;;;;;;;;5113579;28;20517;-67
2022/07/16 05:44:10;;;;;;;6.63;1.77;;;;;;;;;;5112969;28;20086;-67
2022/07/16 05:46:36;;;;;;;9.45;1.50;;;;;;;;;;5113605;28;20619;-67
2022/07/16 05:49:02;;;;;;;4.63;1.58;;;;;;;;;;5113603;28;20032;-67
2022/07/16 05:51:28;;;;;;;5.18;1.77;;;;;;;;;;5113092;28;20118;-67
2022/07/16 05:53:54;;;;;;;7.93;1.60;;;;;;;;;;5113201;28;20096;-67
2022/07/16 05:56:20;;;;;;;7.15;1.60;;;;;;;;;;5113387;28;20043;-67
2022/07/16 05:58:46;;;;;;;5.20;2.70;;;;;;;;;;5113334;28;20036;-67
2022/07/16 06:01:12;;;;;;;6.22;1.33;;;;;;;;;;5112634;28;20134;-67
2022/07/16 06:03:38;;;;;;;9.05;1.40;;;;;;;;;;5113112;28;20077;-67
2022/07/16 06:06:04;;;;;;;7.95;1.50;;;;;;;;;;5112688;28;20104;-67
2022/07/16 06:08:31;;;;;;;11.05;1.50;;;;;;;;;;5112649;28;20051;-67
2022/07/16 06:10:59;;;;;;;5.30;1.42;;;;;;;;;;5113130;28;20070;-67
2022/07/16 06:13:25;;;;;;;6.57;1.50;;;;;;;;;;5112051;28;20058;-67
2022/07/16 06:15:51;;;;;;;4.32;1.17;;;;;;;;;;5112319;28;20409;-67
2022/07/16 06:18:17;;;;;;;8.10;1.55;;;;;;;;;;5113091;28;20386;-67
2022/07/16 06:20:43;;;;;;;8.68;1.25;;;;;;;;;;5112909;28;20039;-67
2022/07/16 06:23:09;;;;;;;4.35;1.10;;;;;;;;;;5112090;28;20073;-67
2022/07/16 06:25:37;;;;;;;10.68;1.75;;;;;;;;;;5115865;27;20055;-67
2022/07/16 06:28:03;;;;;;;7.45;1.30;;;;;;;;;;5133051;27;20043;-67
2022/07/16 06:30:29;;;;;;;7.32;1.30;;;;;;;;;;5132785;27;20062;-67
2022/07/16 06:32:55;;;;;;;5.38;1.13;;;;;;;;;;5133140;27;20552;-67
2022/07/16 06:35:21;;;;;;;7.13;1.25;;;;;;;;;;5133151;27;20126;-67
2022/07/16 06:37:47;;;;;;;6.18;1.30;;;;;;;;;;5132668;27;20080;-67
2022/07/16 06:40:13;;;;;;;6.20;1.17;;;;;;;;;;5133285;27;20817;-67
2022/07/16 06:42:39;;;;;;;5.22;1.10;;;;;;;;;;5131730;27;20474;-67
2022/07/16 06:45:06;;;;;;;7.85;1.10;;;;;;;;;;5132331;27;20458;-67
2022/07/16 06:47:32;;;;;;;5.88;1.27;;;;;;;;;;5133049;27;20041;-67
2022/07/16 06:49:58;;;;;;;6.00;1.10;;;;;;;;;;5133083;27;20126;-67
2022/07/16 06:52:24;;;;;;;7.93;1.35;;;;;;;;;;5132329;27;20095;-67
2022/07/16 06:54:50;;;;;;;7.90;0.82;;;;;;;;;;5133000;27;20491;-67
2022/07/16 06:57:16;;;;;;;6.57;1.08;;;;;;;;;;5132827;27;20071;-67
2022/07/16 06:59:42;;;;;;;7.82;1.13;;;;;;;;;;5131137;27;20139;-67
2022/07/16 07:02:08;;;;;;;7.22;1.35;;;;;;;;;;5132929;27;20485;-67
2022/07/16 07:04:34;;;;;;;6.15;1.27;;;;;;;;;;5132617;27;20413;-67
2022/07/16 07:07:00;;;;;;;3.38;0.80;;;;;;;;;;5132274;27;20043;-67
2022/07/16 07:09:26;;;;;;;3.60;0.93;;;;;;;;;;5132947;27;20585;-67
2022/07/16 07:11:52;;;;;;;8.48;1.10;;;;;;;;;;5132434;27;20109;-68
2022/07/16 07:14:18;;;;;;;7.90;1.00;;;;;;;;;;5130655;28;20047;-68
2022/07/16 07:16:44;;;;;;;5.07;0.75;;;;;;;;;;5132802;27;20050;-67
2022/07/16 07:19:10;;;;;;;6.72;0.82;;;;;;;;;;5132710;27;20571;-67
2022/07/16 07:21:36;;;;;;;8.57;0.95;;;;;;;;;;5132029;27;20039;-67
2022/07/16 07:24:03;;;;;;;5.72;0.75;;;;;;;;;;5135142;27;20031;-67
2022/07/16 07:26:29;;;;;;;4.72;0.70;;;;;;;;;;5126197;27;20680;-67
2022/07/16 07:28:55;;;;;;;6.93;0.88;;;;;;;;;;5115650;28;20047;-67
2022/07/16 07:31:21;;;;;;;7.07;0.73;;;;;;;;;;5116400;28;20039;-67
2022/07/16 07:33:47;;;;;;;3.13;0.90;;;;;;;;;;5114696;28;20488;-67
2022/07/16 07:36:13;;;;;;;3.45;0.80;;;;;;;;;;5115719;27;20382;-67
2022/07/16 07:38:39;;;;;;;3.85;0.80;;;;;;;;;;5116198;28;20440;-67
2022/07/16 07:41:05;;;;;;;5.63;1.20;;;;;;;;;;5116159;28;20046;-67
2022/07/16 07:43:31;;;;;;;8.52;0.98;;;;;;;;;;5115320;28;20032;-67
2022/07/16 07:45:57;;;;;;;4.72;0.80;;;;;;;;;;5116018;28;20444;-67
2022/07/16 07:48:23;;;;;;;5.22;0.80;;;;;;;;;;5115645;28;20100;-67
2022/07/16 07:50:49;;;;;;;5.00;0.73;;;;;;;;;;5114979;28;20039;-67
2022/07/16 07:53:15;;;;;;;5.75;1.17;;;;;;;;;;5115826;28;20071;-67
2022/07/16 07:55:41;;;;;;;4.35;0.90;;;;;;;;;;5115442;28;20036;-67
2022/07/16 07:58:08;;;;;;;4.22;0.70;;;;;;;;;;5114856;27;20038;-67
2022/07/16 08:00:34;;;;;;;3.42;0.98;;;;;;;;;;5114174;28;20119;-67
2022/07/16 08:03:00;;;;;;;3.00;0.70;;;;;;;;;;5115602;28;20031;-67
2022/07/16 08:05:26;;;;;;;2.72;0.63;;;;;;;;;;5114354;28;20139;-67
2022/07/16 08:07:52;;;;;;;5.68;0.45;;;;;;;;;;5115604;28;20126;-67
2022/07/16 08:10:18;;;;;;;3.50;0.68;;;;;;;;;;5115599;28;20039;-67
2022/07/16 08:12:44;;;;;;;3.22;0.70;;;;;;;;;;5114810;28;20040;-67
2022/07/16 08:15:10;;;;;;;5.38;0.70;;;;;;;;;;5115508;28;20176;-67
2022/07/16 08:17:37;;;;;;;8.55;0.95;;;;;;;;;;5115537;28;20039;-67
2022/07/16 08:20:04;;;;;;;3.95;0.63;;;;;;;;;;5114739;28;20031;-67
2022/07/16 08:22:30;;;;;;;5.20;0.80;;;;;;;;;;5115274;28;20492;-67
2022/07/16 08:27:41;;;;;;;3.45;0.70;;;;;;;;;;5114800;28;20494;-67
2022/07/16 08:30:07;;;;;;;7.45;1.13;;;;;;;;;;5115331;28;20050;-67
2022/07/16 08:32:33;;;;;;;5.50;0.80;;;;;;;;;;5114853;28;20043;-67
2022/07/16 08:34:59;;;;;;;6.10;1.30;;;;;;;;;;5113697;28;20061;-67
2022/07/16 08:37:36;;;;;;;6.05;0.82;;;;;;;;;;5115125;28;20603;-67
2022/07/16 08:40:06;;;;;;;4.50;0.90;;;;;;;;;;5115079;28;20031;-67
2022/07/16 08:42:33;;;;;;;3.33;0.93;;;;;;;;;;5114138;28;20032;-67
2022/07/16 08:45:00;;;;;;;5.65;0.70;;;;;;;;;;5114863;28;20044;-67
2022/07/16 08:47:27;;;;;;;6.55;0.93;;;;;;;;;;5114938;27;20047;-67
2022/07/16 08:49:53;;;;;;;2.97;0.75;;;;;;;;;;5114200;28;20462;-67
2022/07/16 08:52:20;;;;;;;3.70;0.95;;;;;;;;;;5114415;28;20050;-67
2022/07/16 08:54:48;;;;;;;3.65;0.77;;;;;;;;;;5114719;28;20043;-67
2022/07/16 08:57:15;;;;;;;3.28;0.77;;;;;;;;;;5114207;28;20465;-67
2022/07/16 08:59:41;;;;;;;4.10;0.70;;;;;;;;;;5114563;28;20044;-67
2022/07/16 09:02:07;;;;;;;3.28;0.75;;;;;;;;;;5114299;28;20036;-67
2022/07/16 09:04:33;;;;;;;4.38;0.60;;;;;;;;;;5113475;28;20494;-67
2022/07/16 09:07:00;;;;;;;3.28;0.73;;;;;;;;;;5114434;28;20039;-67
2022/07/16 09:09:26;;;;;;;3.45;0.50;;;;;;;;;;5114631;28;20042;-67
2022/07/16 09:11:52;;;;;;;3.78;0.60;;;;;;;;;;5113848;28;20043;-67
2022/07/16 09:14:18;;;;;;;2.90;0.70;;;;;;;;;;5114028;28;20039;-67
2022/07/16 09:16:45;;;;;;;5.28;0.90;;;;;;;;;;5114308;28;20050;-67
2022/07/16 09:19:12;;;;;;;5.05;0.93;;;;;;;;;;5113730;28;20039;-67
2022/07/16 09:21:59;;;;;;;5.80;0.90;;;;;;;;;;5114265;28;20043;-67
2022/07/16 09:24:34;;;;;;;1.80;0.60;;;;;;;;;;5109682;28;20071;-67
2022/07/16 09:27:01;;;;;;;4.82;0.90;;;;;;;;;;5128414;27;20039;-67
2022/07/16 09:29:27;;;;;;;3.58;0.73;;;;;;;;;;5134622;27;20039;-67
2022/07/16 09:31:54;;;;;;;5.90;1.13;;;;;;;;;;5134462;27;20634;-67
2022/07/16 09:34:21;;;;;;;4.53;0.63;;;;;;;;;;5134006;27;20039;-67
2022/07/16 09:37:03;;;;;;;7.28;0.80;;;;;;;;;;5134513;27;20411;-67
2022/07/16 09:39:29;;;;;;;;;;;;;;;;;;5134856;27;20096;-67
2022/07/16 09:41:55;;;;;;;7.63;1.05;;;;;;;;;;5133689;27;20420;-67
2022/07/16 09:44:25;;;;;;;4.90;0.90;;;;;;;;;;5134105;27;20043;-67
2022/07/16 09:46:57;;;;;;;5.03;0.90;;;;;;;;;;5133319;27;20039;-67
2022/07/16 09:49:24;;;;;;;6.10;0.90;;;;;;;;;;5133904;27;20039;-67
2022/07/16 09:51:50;;;;;;;3.30;0.50;;;;;;;;;;5134259;27;20624;-67
2022/07/16 09:54:26;;;;;;;3.00;0.77;;;;;;;;;;5133854;27;20039;-67
2022/07/16 09:57:13;;;;;;;4.43;1.00;;;;;;;;;;5133138;27;20039;-67
2022/07/16 09:59:41;;;;;;;4.82;0.90;;;;;;;;;;5126604;27;20089;-67
2022/07/16 10:02:07;;;;;;;4.20;0.80;;;;;;;;;;5133835;27;20079;-67
2022/07/16 10:04:33;;;;;;;8.15;1.23;;;;;;;;;;5133185;27;20035;-67
2022/07/16 10:06:59;;;;;;;9.43;1.23;;;;;;;;;;5133835;27;20346;-67
2022/07/16 10:09:25;;;;;;;9.90;1.48;;;;;;;;;;5133966;27;20039;-67
2022/07/16 10:11:56;;;;;;;3.58;0.75;;;;;;;;;;5132971;27;20039;-67
2022/07/16 10:14:22;;;;;;;5.10;1.13;;;;;;;;;;5133431;27;20039;-67
2022/07/16 10:16:48;;;;;;;6.97;0.80;;;;;;;;;;5133872;27;20035;-67
2022/07/16 10:19:15;;;;;;;5.60;0.98;;;;;;;;;;5132997;27;20046;-67
2022/07/16 10:21:42;;;;;;;5.43;0.80;;;;;;;;;;5132986;27;20126;-67
2022/07/16 10:24:15;;;;;;;4.90;0.90;;;;;;;;;;5133539;27;20507;-67
2022/07/16 10:26:42;;;;;;;7.32;1.02;;;;;;;;;;5120571;27;20370;-67
2022/07/16 10:29:08;;;;;;;2.72;0.73;;;;;;;;;;5112901;28;20043;-67
2022/07/16 10:32:27;;;;;;;5.63;0.75;;;;;;;;;;5112492;28;20601;-67
2022/07/16 10:34:33;;;;;;;3.60;0.73;;;;;;;;;;5111789;28;20043;-67
2022/07/16 10:36:59;;;;;;;1.38;0.50;;;;;;;;;;5112802;28;20035;-67
2022/07/16 10:39:26;;;;;;;6.25;0.80;;;;;;;;;;5112714;28;20051;-67
2022/07/16 10:41:52;;;;;;;3.85;0.98;;;;;;;;;;5111847;28;20118;-67
2022/07/16 10:44:19;;;;;;;4.88;1.10;;;;;;;;;;5112562;28;20036;-67
2022/07/16 10:46:56;;;;;;;3.35;0.70;;;;;;;;;;5112683;28;20377;-67
2022/07/16 10:49:22;;;;;;;2.90;0.93;;;;;;;;;;5111794;27;20040;-67
2022/07/16 10:52:08;;;;;;;4.90;1.17;;;;;;;;;;5112426;28;20038;-67
2022/07/16 10:54:38;;;;;;;5.25;0.82;;;;;;;;;;5112637;28;20052;-67
2022/07/16 10:57:05;;;;;;;5.05;0.70;;;;;;;;;;5112043;28;20046;-67
2022/07/16 10:59:33;;;;;;;3.17;1.00;;;;;;;;;;5112000;28;20043;-67
2022/07/16 11:02:00;;;;;;;5.63;0.88;;;;;;;;;;5112404;28;20119;-67
2022/07/16 11:04:40;;;;;;;4.75;0.88;;;;;;;;;;5111883;28;20043;-67
2022/07/16 11:07:08;;;;;;;6.90;0.80;;;;;;;;;;5112371;28;20036;-67
2022/07/16 11:09:35;;;;;;;9.98;1.50;;;;;;;;;;5110931;28;20036;-67
2022/07/16 11:12:14;;;;;;;4.35;0.93;;;;;;;;;;5111445;28;20559;-67
2022/07/16 11:14:41;;;;;;;7.88;1.00;;;;;;;;;;5111814;28;20055;-67
2022/07/16 11:17:07;;;;;;;6.18;1.02;;;;;;;;;;5111809;28;20124;-67
2022/07/16 11:19:44;;;;;;;3.63;0.75;;;;;;;;;;5112162;28;20114;-67
2022/07/16 11:22:11;;;;;;;5.55;1.10;;;;;;;;;;5112157;28;20339;-67
2022/07/16 11:24:43;;;;;;;6.25;0.90;;;;;;;;;;5111412;28;20046;-67
2022/07/16 11:27:09;;;;;;;7.05;1.20;;;;;;;;;;5128866;28;20031;-67
2022/07/16 11:29:35;;;;;;;8.10;0.95;;;;;;;;;;5132855;27;20039;-67
2022/07/16 11:32:01;;;;;;;3.55;0.70;;;;;;;;;;5131656;27;20047;-67
2022/07/16 11:34:32;;;;;;;3.75;0.90;;;;;;;;;;5132699;27;20069;-67
2022/07/16 11:36:58;;;;;;;3.25;0.75;;;;;;;;;;5132672;27;20442;-67
2022/07/16 11:39:25;;;;;;;5.43;1.40;;;;;;;;;;5131798;27;20420;-67
2022/07/16 11:41:53;;;;;;;2.28;0.70;;;;;;;;;;5132548;27;20054;-67
2022/07/16 11:44:23;;;;;;;3.88;0.90;;;;;;;;;;5132326;27;20118;-67
2022/07/16 11:46:49;;;;;;;3.53;0.93;;;;;;;;;;5131906;27;20031;-67
2022/07/16 11:49:32;;;;;;;5.43;0.80;;;;;;;;;;5132620;27;20067;-67
2022/07/16 11:51:59;;;;;;;4.40;1.13;;;;;;;;;;5132151;27;20088;-67
2022/07/16 11:54:26;;;;;;;6.22;1.10;;;;;;;;;;5130338;28;20050;-67
2022/07/16 11:56:53;;;;;;;3.05;0.90;;;;;;;;;;5131129;28;20074;-67
2022/07/16 11:59:19;;;;;;;5.47;0.75;;;;;;;;;;5132346;27;20058;-67
2022/07/16 12:01:46;;;;;;;6.10;0.70;;;;;;;;;;5131511;27;20363;-67
2022/07/16 12:04:13;;;;;;;6.32;0.90;;;;;;;;;;5132207;27;20098;-67
2022/07/16 12:06:44;;;;;;;5.28;0.90;;;;;;;;;;5131958;27;20089;-67
2022/07/16 12:09:10;;;;;;;5.85;1.00;;;;;;;;;;5131775;27;20114;-67
2022/07/16 12:11:36;;;;;;;5.63;0.95;;;;;;;;;;5134816;27;20512;-67
2022/07/16 12:14:02;;;;;;;6.80;0.98;;;;;;;;;;5136221;27;20047;-67
2022/07/16 12:16:29;;;;;;;5.50;0.90;;;;;;;;;;5135765;27;20386;-67
2022/07/16 12:19:14;;;;;;;3.72;1.10;;;;;;;;;;5136162;27;20031;-67
2022/07/16 12:21:40;;;;;;;1.88;0.63;;;;;;;;;;5135852;27;20375;-67
2022/07/16 12:24:07;;;;;;;5.90;1.05;;;;;;;;;;5134860;27;20085;-67
2022/07/16 12:26:34;;;;;;;3.47;0.80;;;;;;;;;;5124730;27;20043;-67
2022/07/16 12:29:01;;;;;;;4.03;1.00;;;;;;;;;;5115162;28;20071;-67
2022/07/16 12:31:28;;;;;;;3.63;0.73;;;;;;;;;;5114436;28;20486;-67
2022/07/16 12:33:54;;;;;;;4.20;0.93;;;;;;;;;;5115226;28;20108;-67
2022/07/16 12:36:20;;;;;;;3.60;0.80;;;;;;;;;;5115113;28;20043;-67
2022/07/16 12:38:51;;;;;;;4.50;0.90;;;;;;;;;;5114376;28;20032;-67
2022/07/16 12:41:29;;;;;;;2.78;1.10;;;;;;;;;;5114855;28;20078;-68
2022/07/16 12:43:57;;;;;;;5.32;0.90;;;;;;;;;;5114746;28;20055;-68
2022/07/16 12:46:49;;;;;;;3.25;1.10;;;;;;;;;;5114222;28;20043;-68
2022/07/16 12:49:17;;;;;;;2.05;0.60;;;;;;;;;;5112460;28;20096;-68
2022/07/16 12:51:56;;;;;;;2.95;0.85;;;;;;;;;;5114472;28;20036;-67
2022/07/16 12:54:24;;;;;;;2.78;0.80;;;;;;;;;;5114035;28;20042;-67
2022/07/16 12:59:35;;;;;;;3.38;0.70;;;;;;;;;;5114625;28;20036;-67
2022/07/16 13:02:01;;;;;;;3.38;0.73;;;;;;;;;;5113787;28;20040;-67
2022/07/16 13:04:27;;;;;;;4.28;1.00;;;;;;;;;;5114216;28;20032;-67
2022/07/16 13:06:54;;;;;;;4.55;0.90;;;;;;;;;;5114637;28;20043;-67
2022/07/16 13:09:21;;;;;;;3.17;0.60;;;;;;;;;;5113903;28;20411;-67
2022/07/16 13:11:47;;;;;;;3.40;0.60;;;;;;;;;;5114010;28;20086;-67
2022/07/16 13:14:13;;;;;;;4.25;0.85;;;;;;;;;;5114170;28;20039;-67
2022/07/16 13:16:40;;;;;;;4.47;0.80;;;;;;;;;;5113608;28;20043;-67
2022/07/16 13:19:07;;;;;;;2.90;0.70;;;;;;;;;;5114073;28;20363;-67
2022/07/16 13:21:33;;;;;;;2.85;0.60;;;;;;;;;;5113375;28;20071;-67
2022/07/16 13:24:00;;;;;;;3.67;0.95;;;;;;;;;;5113304;28;20063;-67
2022/07/16 13:26:27;;;;;;;2.15;0.80;;;;;;;;;;5124191;27;20031;-67
2022/07/16 13:28:54;;;;;;;4.22;0.82;;;;;;;;;;5134380;27;20054;-67
2022/07/16 13:31:20;;;;;;;5.97;0.90;;;;;;;;;;5133435;27;20043;-67
2022/07/16 13:33:47;;;;;;;2.58;1.10;;;;;;;;;;5134163;27;20039;-67
2022/07/16 13:36:13;;;;;;;4.70;0.80;;;;;;;;;;5134215;27;20100;-67
2022/07/16 13:38:41;;;;;;;5.72;1.05;;;;;;;;;;5133458;27;20355;-67
2022/07/16 13:41:07;;;;;;;5.15;1.10;;;;;;;;;;5133835;27;20028;-67
2022/07/16 13:43:34;;;;;;;4.15;0.70;;;;;;;;;;5134101;27;20065;-67
2022/07/16 13:46:00;;;;;;;3.42;0.85;;;;;;;;;;5133051;27;20074;-67
2022/07/16 13:48:26;;;;;;;4.78;0.98;;;;;;;;;;5134058;27;20039;-67
2022/07/16 13:50:52;;;;;;;5.57;0.90;;;;;;;;;;5134049;27;20035;-67
2022/07/16 13:53:18;;;;;;;5.35;1.00;;;;;;;;;;5132927;27;20077;-68
2022/07/16 13:55:44;;;;;;;7.57;1.55;;;;;;;;;;5133925;27;20598;-68
2022/07/16 13:58:14;;;;;;;3.45;0.82;;;;;;;;;;5133823;27;20245;-68
2022/07/16 14:00:44;;;;;;;5.68;1.15;;;;;;;;;;5133215;27;20084;-68
2022/07/16 14:03:11;;;;;;;5.68;1.15;;;;;;;;;;5133653;27;20039;-68
2022/07/16 14:05:37;;;;;;;7.78;1.25;;;;;;;;;;5132023;27;20104;-68
2022/07/16 14:08:03;;;;;;;3.92;0.95;;;;;;;;;;5133022;27;20051;-68
2022/07/16 14:10:29;;;;;;;5.45;1.10;;;;;;;;;;5133566;27;20051;-68
2022/07/16 14:12:56;;;;;;;3.40;0.93;;;;;;;;;;5133399;27;20675;-68
2022/07/16 14:15:22;;;;;;;4.63;0.75;;;;;;;;;;5132828;27;20514;-68
2022/07/16 14:17:48;;;;;;;2.97;0.80;;;;;;;;;;5133551;27;20036;-68
2022/07/16 14:20:15;;;;;;;7.40;0.95;;;;;;;;;;5133395;27;20095;-68
2022/07/16 14:22:41;;;;;;;3.88;0.80;;;;;;;;;;5132506;27;20611;-68
2022/07/16 14:25:07;;;;;;;4.28;1.20;;;;;;;;;;5133207;27;20050;-68
2022/07/16 14:27:34;;;;;;;4.20;0.90;;;;;;;;;;5113203;27;20122;-68
2022/07/16 14:30:00;;;;;;;4.22;0.95;;;;;;;;;;5112052;28;20089;-68
2022/07/16 14:32:26;;;;;;;2.15;0.70;;;;;;;;;;5112071;28;20042;-68
2022/07/16 14:34:52;;;;;;;6.93;0.90;;;;;;;;;;5112423;28;20046;-68
2022/07/16 14:37:18;;;;;;;5.32;1.33;;;;;;;;;;5111884;28;20038;-68
2022/07/16 14:39:44;;;;;;;5.50;1.23;;;;;;;;;;5112479;28;20039;-68
2022/07/16 14:42:10;;;;;;;2.38;1.02;;;;;;;;;;5112022;28;20069;-68
2022/07/16 14:44:36;;;;;;;3.88;0.82;;;;;;;;;;5111580;28;20043;-68
2022/07/16 14:47:02;;;;;;;4.65;1.05;;;;;;;;;;5112332;28;20411;-68
2022/07/16 14:49:28;;;;;;;5.45;1.70;;;;;;;;;;5112032;28;20092;-68
2022/07/16 14:51:54;;;;;;;3.42;0.90;;;;;;;;;;5111281;28;20417;-68